Time;durP1;ratioP1;P1;durP2;ratioP2;P2;SDS_P1;SDS_P2;PMS_P1;PMS_P2;Temp;Humidity;BMP_temperature;BMP_pressure;BME280_temperature;BME280_humidity;BME280_pressure;Samples;Min_cycle;Max_cycle;Signal;HPM_P1;HPM_P2
2021/07/29 00:02:15;;;;;;;3.75;3.20;;;;;;;31.18;38.93;99000.09;1725112;82;21022;-53
2021/07/29 00:04:42;;;;;;;3.92;3.37;;;;;;;31.17;38.95;98999.77;1750655;81;21133;-52
2021/07/29 00:07:08;;;;;;;4.55;3.40;;;;;;;31.17;38.94;99003.34;1718231;81;21018;-50
2021/07/29 00:09:36;;;;;;;3.83;3.52;;;;;;;31.16;38.95;99003.53;1716392;82;21134;-54
2021/07/29 00:12:05;;;;;;;3.33;3.12;;;;;;;31.14;38.97;99003.73;1748404;82;21530;-52
2021/07/29 00:14:34;;;;;;;3.55;3.33;;;;;;;31.15;38.97;99011.36;1750597;82;20987;-53
2021/07/29 00:17:02;;;;;;;3.70;3.50;;;;;;;31.14;38.98;99023.28;1724987;82;21049;-50
2021/07/29 00:19:28;;;;;;;3.75;3.45;;;;;;;31.11;39.02;99021.26;1750710;82;22217;-53
2021/07/29 00:21:55;;;;;;;3.65;3.30;;;;;;;31.10;39.00;99012.80;1750556;82;21061;-53
2021/07/29 00:24:25;;;;;;;4.15;3.47;;;;;;;31.10;39.00;99020.95;1725197;82;21182;-50
2021/07/29 00:26:51;;;;;;;3.65;3.35;;;;;;;31.09;39.01;99012.47;1720179;83;21520;-53
2021/07/29 00:29:18;;;;;;;4.08;3.67;;;;;;;31.09;39.00;99015.72;1720857;83;21520;-51
2021/07/29 00:31:46;;;;;;;4.17;3.77;;;;;;;31.08;39.04;99009.42;1720841;83;20990;-52
2021/07/29 00:34:12;;;;;;;3.70;3.40;;;;;;;31.07;39.02;99015.91;1696137;83;21033;-52
2021/07/29 00:36:39;;;;;;;3.55;3.17;;;;;;;31.06;39.04;99010.15;1721248;83;21062;-51
2021/07/29 00:39:05;;;;;;;3.27;3.05;;;;;;;31.06;39.05;99017.47;1720851;83;21045;-50
2021/07/29 00:41:31;;;;;;;3.70;3.40;;;;;;;31.05;39.06;99017.14;1720842;83;21125;-53
2021/07/29 00:44:04;;;;;;;3.77;3.47;;;;;;;31.04;39.04;99013.59;1696455;83;21053;-53
2021/07/29 00:46:32;;;;;;;3.80;3.42;;;;;;;31.02;39.08;99017.03;1696200;83;21053;-53
2021/07/29 00:49:00;;;;;;;3.87;3.42;;;;;;;31.02;39.07;99021.11;1720934;83;21121;-52
2021/07/29 00:51:27;;;;;;;4.37;3.60;;;;;;;31.01;39.08;99020.77;1720683;83;21018;-52
2021/07/29 00:53:54;;;;;;;3.75;3.45;;;;;;;31.00;39.05;99016.39;1696255;83;21021;-53
2021/07/29 00:56:20;;;;;;;3.87;3.58;;;;;;;30.99;39.08;99016.06;1720919;83;22106;-53
2021/07/29 00:58:47;;;;;;;4.05;3.77;;;;;;;30.99;39.09;99018.78;1721035;83;21591;-52
2021/07/29 01:01:14;;;;;;;4.45;3.65;;;;;;;30.98;39.09;99017.09;1720322;83;21536;-49
2021/07/29 01:03:41;;;;;;;3.65;3.33;;;;;;;30.97;39.10;99016.78;1696176;83;21037;-53
2021/07/29 01:06:08;;;;;;;4.08;3.67;;;;;;;30.96;39.10;99013.73;1719466;82;21540;-52
2021/07/29 01:09:02;;;;;;;4.10;3.80;;;;;;;30.96;39.11;99015.62;1750828;82;21122;-53
2021/07/29 01:11:30;;;;;;;3.98;3.22;;;;;;;30.94;39.12;99014.45;1750601;82;21029;-52
2021/07/29 01:13:57;;;;;;;3.33;3.12;;;;;;;30.94;39.11;99018.53;1746699;80;22754;-50
2021/07/29 01:16:23;;;;;;;4.60;4.20;;;;;;;30.92;39.12;99011.91;1713719;83;21571;-54
2021/07/29 01:18:50;;;;;;;4.00;3.70;;;;;;;30.92;39.13;99019.22;1695345;83;21042;-51
2021/07/29 01:21:17;;;;;;;3.60;3.30;;;;;;;30.92;39.15;99020.58;1719121;83;21868;-53
2021/07/29 01:23:44;;;;;;;3.92;3.37;;;;;;;30.90;39.15;99013.13;1746320;81;20990;-52
2021/07/29 01:26:11;;;;;;;3.58;3.30;;;;;;;30.89;39.15;99015.53;1752868;81;21129;-53
2021/07/29 01:28:38;;;;;;;3.40;3.15;;;;;;;30.88;39.15;99013.34;1756813;81;21528;-50
2021/07/29 01:31:05;;;;;;;3.35;3.10;;;;;;;30.88;39.17;99020.14;1745661;81;21110;-53
2021/07/29 01:33:31;;;;;;;3.90;3.60;;;;;;;30.87;39.19;99024.41;1726462;82;21051;-50
2021/07/29 01:35:59;;;;;;;3.95;3.58;;;;;;;30.87;39.17;99029.84;1726802;82;21102;-51
2021/07/29 01:38:26;;;;;;;3.92;3.60;;;;;;;30.85;39.20;99033.25;1703877;83;21549;-50
2021/07/29 01:40:52;;;;;;;5.45;3.70;;;;;;;30.85;39.20;99030.53;1726747;83;21016;-49
2021/07/29 01:43:20;;;;;;;4.00;3.60;;;;;;;30.84;39.20;99036.49;1726514;83;21159;-51
2021/07/29 01:45:47;;;;;;;3.50;3.20;;;;;;;30.84;39.22;99035.66;1726467;83;21035;-53
2021/07/29 01:48:13;;;;;;;3.42;3.22;;;;;;;30.83;39.22;99038.88;1715026;81;21053;-52
2021/07/29 01:50:40;;;;;;;5.05;3.83;;;;;;;30.82;39.19;99031.78;1756563;81;21129;-53
2021/07/29 01:53:06;;;;;;;4.40;3.33;;;;;;;30.81;39.19;99030.61;1756869;81;21021;-53
2021/07/29 01:55:33;;;;;;;3.83;3.62;;;;;;;30.81;39.20;99033.33;1732945;81;21092;-53
2021/07/29 01:57:59;;;;;;;3.75;3.45;;;;;;;30.80;39.20;99042.00;1732931;81;21657;-53
2021/07/29 02:00:26;;;;;;;4.10;3.60;;;;;;;30.80;39.22;99043.36;1756732;81;21489;-52
2021/07/29 02:02:52;;;;;;;4.17;3.87;;;;;;;30.80;39.21;99046.58;1756578;81;21209;-49
2021/07/29 02:05:19;;;;;;;3.98;3.67;;;;;;;30.78;39.19;99044.58;1756364;81;21271;-53
2021/07/29 02:07:45;;;;;;;3.83;3.58;;;;;;;30.78;39.20;99043.22;1726023;81;21053;-53
2021/07/29 02:10:12;;;;;;;3.72;3.42;;;;;;;30.77;39.20;99045.63;1756587;81;21061;-52
2021/07/29 02:12:39;;;;;;;3.45;3.17;;;;;;;30.76;39.21;99046.13;1755086;81;21041;-53
2021/07/29 02:15:10;;;;;;;5.95;3.58;;;;;;;30.75;39.22;99039.87;1756631;81;21979;-53
2021/07/29 02:17:37;;;;;;;3.70;3.40;;;;;;;30.75;39.21;99041.75;1733368;81;21002;-53
2021/07/29 02:20:05;;;;;;;3.77;3.42;;;;;;;30.74;39.20;99032.75;1756784;81;21054;-50
2021/07/29 02:22:32;;;;;;;3.72;3.42;;;;;;;30.74;39.21;99026.48;1743185;81;21096;-52
2021/07/29 02:24:58;;;;;;;3.70;3.40;;;;;;;30.73;39.20;99020.22;1726751;83;21512;-51
2021/07/29 02:27:25;;;;;;;3.72;3.42;;;;;;;30.73;39.21;99013.93;1726583;83;21119;-53
2021/07/29 02:29:53;;;;;;;4.15;3.75;;;;;;;30.73;39.19;99014.79;1726424;83;21073;-52
2021/07/29 02:32:21;;;;;;;3.75;3.45;;;;;;;30.72;39.20;99013.09;1726532;83;21057;-52
2021/07/29 02:34:47;;;;;;;3.83;3.47;;;;;;;30.73;39.19;99011.21;1726689;83;21018;-51
2021/07/29 02:37:13;;;;;;;3.60;3.35;;;;;;;30.73;39.19;99011.21;1726507;82;21080;-53
2021/07/29 02:39:43;;;;;;;3.58;3.27;;;;;;;30.74;39.14;99008.30;1726637;83;21752;-52
2021/07/29 02:42:09;;;;;;;4.08;3.77;;;;;;;30.74;39.09;99005.59;1703423;83;21591;-53
2021/07/29 02:44:36;;;;;;;3.80;3.50;;;;;;;30.78;39.07;98998.41;1726513;83;21544;-52
2021/07/29 02:47:03;;;;;;;3.33;3.08;;;;;;;30.80;39.00;99001.27;1726551;83;22174;-53
2021/07/29 02:49:30;;;;;;;5.10;3.58;;;;;;;30.84;38.96;99001.71;1726902;83;20997;-53
2021/07/29 02:51:57;;;;;;;3.70;3.50;;;;;;;30.88;38.85;98997.55;1726528;83;21136;-51
2021/07/29 02:54:24;;;;;;;3.58;3.27;;;;;;;30.94;38.76;98990.01;1703797;83;21061;-51
2021/07/29 02:56:50;;;;;;;3.80;3.50;;;;;;;31.04;38.64;98982.88;1726402;83;21586;-53
2021/07/29 02:59:18;;;;;;;3.47;3.25;;;;;;;31.15;38.41;98984.19;1703550;83;21105;-51
2021/07/29 03:01:45;;;;;;;3.47;3.27;;;;;;;31.26;38.18;98978.20;1703715;83;21010;-51
2021/07/29 03:04:11;;;;;;;4.10;3.75;;;;;;;31.40;37.96;98973.13;1703659;81;21065;-49
2021/07/29 03:06:38;;;;;;;3.45;3.20;;;;;;;31.53;37.72;98971.05;1725820;81;21038;-53
2021/07/29 03:09:05;;;;;;;3.80;3.42;;;;;;;31.68;37.47;98970.90;1755530;81;21942;-50
2021/07/29 03:11:31;;;;;;;3.60;3.30;;;;;;;31.80;37.22;98967.90;1756656;81;21619;-53
2021/07/29 03:13:57;;;;;;;3.40;3.20;;;;;;;31.93;36.97;98966.28;1732628;81;21006;-53
2021/07/29 03:16:24;;;;;;;3.45;3.25;;;;;;;32.06;36.74;98962.27;1756701;81;21143;-52
2021/07/29 03:18:52;;;;;;;3.55;3.25;;;;;;;32.18;36.49;98962.50;1756552;81;21043;-54
2021/07/29 03:21:19;;;;;;;4.78;3.55;;;;;;;32.31;36.24;98965.24;1756372;81;21041;-53
2021/07/29 03:23:45;;;;;;;3.90;3.40;;;;;;;32.47;35.98;98959.89;1727338;81;21112;-53
2021/07/29 03:26:12;;;;;;;3.27;2.98;;;;;;;32.63;35.68;98968.72;1703358;83;21100;-52
2021/07/29 03:28:39;;;;;;;4.25;3.27;;;;;;;32.79;35.41;98956.58;1703541;83;21343;-53
2021/07/29 03:31:06;;;;;;;3.72;3.42;;;;;;;32.95;35.11;98956.11;1726258;83;21061;-52
2021/07/29 03:33:32;;;;;;;4.00;3.67;;;;;;;33.13;34.82;98960.91;1726469;83;21085;-53
2021/07/29 03:35:59;;;;;;;3.62;3.42;;;;;;;33.30;34.49;98964.90;1703575;83;21049;-53
2021/07/29 03:38:25;;;;;;;3.45;3.15;;;;;;;33.49;34.19;98957.69;1703643;83;21108;-53
2021/07/29 03:40:53;;;;;;;3.42;3.17;;;;;;;33.66;33.87;98953.94;1703451;83;21326;-54
2021/07/29 03:43:20;;;;;;;3.80;3.45;;;;;;;33.85;33.55;98956.82;1703594;83;21061;-52
2021/07/29 03:45:46;;;;;;;3.37;3.17;;;;;;;34.00;33.26;98947.80;1703581;83;20962;-53
2021/07/29 03:48:13;;;;;;;3.40;3.10;;;;;;;34.12;33.02;98946.57;1726632;83;21650;-54
2021/07/29 03:50:40;;;;;;;3.52;3.22;;;;;;;34.15;32.88;98946.13;1703590;83;21294;-52
2021/07/29 03:53:07;;;;;;;3.70;3.40;;;;;;;34.11;32.90;98944.06;1726318;83;21159;-53
2021/07/29 03:55:34;;;;;;;3.02;2.83;;;;;;;34.13;32.87;98947.40;1726335;82;21045;-54
2021/07/29 03:58:01;;;;;;;3.12;2.92;;;;;;;34.21;32.76;98947.17;1703546;83;21566;-52
2021/07/29 04:00:28;;;;;;;3.40;3.20;;;;;;;34.33;32.59;98952.75;1703593;83;21571;-53
2021/07/29 04:02:55;;;;;;;3.40;3.20;;;;;;;34.46;32.35;98949.92;1726516;83;21069;-53
2021/07/29 04:05:22;;;;;;;3.30;3.10;;;;;;;34.62;32.12;98948.55;1740989;81;21164;-53
2021/07/29 04:07:48;;;;;;;3.60;3.30;;;;;;;34.79;31.84;98951.03;1756603;81;21009;-54
2021/07/29 04:10:15;;;;;;;3.30;2.98;;;;;;;34.98;31.54;98949.15;1753057;81;21039;-52
2021/07/29 04:12:41;;;;;;;3.30;3.02;;;;;;;35.16;31.24;98952.44;1754646;81;21073;-53
2021/07/29 04:15:11;;;;;;;3.60;3.30;;;;;;;35.35;30.96;98949.20;1756596;81;21022;-53
2021/07/29 04:17:40;;;;;;;3.08;2.87;;;;;;;35.53;30.67;98948.36;1756528;81;21160;-52
2021/07/29 04:20:08;;;;;;;3.10;2.87;;;;;;;35.72;30.38;98952.44;1732774;81;21361;-52
2021/07/29 04:22:35;;;;;;;3.60;3.08;;;;;;;35.86;30.13;98946.27;1732837;81;21081;-52
2021/07/29 04:25:01;;;;;;;3.22;3.02;;;;;;;36.01;29.90;98945.34;1756594;81;22168;-53
2021/07/29 04:27:28;;;;;;;3.02;2.75;;;;;;;36.15;29.67;98947.88;1753526;81;21591;-50
2021/07/29 04:29:54;;;;;;;3.45;2.98;;;;;;;36.26;29.48;98941.60;1750745;82;21108;-53
2021/07/29 04:32:20;;;;;;;5.17;2.87;;;;;;;36.38;29.30;98947.10;1750638;82;21033;-53
2021/07/29 04:34:47;;;;;;;3.40;3.20;;;;;;;36.49;29.12;98946.30;1750718;82;21061;-52
2021/07/29 04:37:15;;;;;;;2.87;2.75;;;;;;;36.57;28.98;98940.47;1750815;82;21025;-53
2021/07/29 04:39:42;;;;;;;3.12;2.92;;;;;;;36.64;28.80;98945.30;1750736;82;21025;-53
2021/07/29 04:42:12;;;;;;;3.15;2.92;;;;;;;36.71;28.70;98944.39;1724990;82;21026;-50
2021/07/29 04:44:39;;;;;;;3.05;2.85;;;;;;;36.72;28.64;98951.52;1725367;82;21062;-50
2021/07/29 04:47:05;;;;;;;3.20;3.00;;;;;;;36.71;28.64;98949.86;1750697;82;21054;-53
2021/07/29 04:49:32;;;;;;;3.20;3.00;;;;;;;36.63;28.67;98951.86;1750484;82;21071;-53
2021/07/29 04:51:58;;;;;;;3.05;2.85;;;;;;;36.51;28.79;98947.44;1750691;82;21133;-53
2021/07/29 04:54:25;;;;;;;2.98;2.77;;;;;;;36.36;28.97;98956.10;1750730;82;21968;-53
2021/07/29 04:56:52;;;;;;;3.05;2.85;;;;;;;36.21;29.15;98955.14;1750587;82;20986;-53
2021/07/29 04:59:21;;;;;;;2.95;2.85;;;;;;;36.05;29.37;98952.55;1750788;82;21030;-52
2021/07/29 05:01:49;;;;;;;2.58;2.47;;;;;;;35.89;29.56;98945.81;1725446;82;21030;-53
2021/07/29 05:04:16;;;;;;;2.95;2.75;;;;;;;35.75;29.78;98945.16;1750754;81;21013;-49
2021/07/29 05:06:43;;;;;;;3.22;3.02;;;;;;;35.62;29.97;98950.23;1750760;82;21094;-54
2021/07/29 05:09:10;;;;;;;3.30;3.10;;;;;;;35.48;30.11;98941.37;1750627;82;21173;-52
2021/07/29 05:11:38;;;;;;;3.00;2.80;;;;;;;35.39;30.27;98944.13;1750662;82;21050;-51
2021/07/29 05:14:05;;;;;;;3.52;3.33;;;;;;;35.29;30.42;98946.54;1750542;81;21485;-51
2021/07/29 05:16:33;;;;;;;3.05;2.85;;;;;;;35.20;30.60;98942.42;1751117;81;21036;-50
2021/07/29 05:18:59;;;;;;;2.85;2.55;;;;;;;35.11;30.69;98939.98;1750638;82;21072;-52
2021/07/29 05:21:26;;;;;;;3.08;2.87;;;;;;;35.02;30.84;98937.27;1750564;82;21089;-52
2021/07/29 05:23:52;;;;;;;3.02;2.83;;;;;;;34.94;30.99;98938.92;1695744;83;21093;-52
2021/07/29 05:26:19;;;;;;;3.08;2.87;;;;;;;34.86;31.11;98932.38;1720979;83;21037;-53
2021/07/29 05:28:47;;;;;;;2.95;2.72;;;;;;;34.79;31.21;98931.90;1696158;83;21001;-48
2021/07/29 05:31:13;;;;;;;2.85;2.65;;;;;;;34.75;31.29;98929.33;1720918;83;21113;-53
2021/07/29 05:33:40;;;;;;;3.25;2.95;;;;;;;34.72;31.35;98932.50;1720893;83;21025;-52
2021/07/29 05:36:06;;;;;;;3.02;2.83;;;;;;;34.68;31.42;98931.23;1721044;83;21034;-53
2021/07/29 05:38:34;;;;;;;2.85;2.70;;;;;;;34.65;31.48;98920.78;1696283;83;21077;-53
2021/07/29 05:41:06;;;;;;;3.27;2.70;;;;;;;34.63;31.52;98920.14;1696229;83;21237;-54
2021/07/29 05:43:37;;;;;;;3.02;2.83;;;;;;;34.61;31.57;98922.27;1696001;83;21050;-52
2021/07/29 05:46:10;;;;;;;3.27;2.98;;;;;;;34.59;31.57;98923.03;1720558;83;20991;-53
2021/07/29 05:48:38;;;;;;;3.37;3.15;;;;;;;34.57;31.66;98926.52;1720850;83;21013;-52
2021/07/29 05:51:05;;;;;;;2.77;2.58;;;;;;;34.55;31.66;98920.42;1720712;83;21049;-53
2021/07/29 05:53:32;;;;;;;3.08;2.85;;;;;;;34.53;31.70;98923.41;1720851;83;21532;-51
2021/07/29 05:56:03;;;;;;;2.80;2.60;;;;;;;34.51;31.71;98921.95;1721041;83;22341;-52
2021/07/29 05:58:27;;;;;;;3.15;2.95;;;;;;;34.49;31.75;98922.70;1695598;83;21544;-52
2021/07/29 06:00:53;;;;;;;2.95;2.65;;;;;;;34.49;31.76;98926.80;1673065;83;21057;-53
2021/07/29 06:03:20;;;;;;;2.98;2.77;;;;;;;34.48;31.78;98922.38;1720731;83;21288;-53
2021/07/29 06:05:46;;;;;;;2.62;2.52;;;;;;;34.47;31.81;98919.36;1740515;81;21037;-49
2021/07/29 06:08:13;;;;;;;2.92;2.72;;;;;;;34.46;31.83;98923.97;1750835;82;21134;-47
2021/07/29 06:10:40;;;;;;;2.90;2.70;;;;;;;34.45;31.84;98921.46;1718230;82;21018;-54
2021/07/29 06:13:06;;;;;;;2.92;2.72;;;;;;;34.43;31.84;98921.17;1750760;82;21049;-53
2021/07/29 06:15:33;;;;;;;3.72;3.02;;;;;;;34.42;31.89;98917.30;1750668;82;21033;-53
2021/07/29 06:18:01;;;;;;;2.65;2.55;;;;;;;34.40;31.95;98917.52;1724260;82;21016;-51
2021/07/29 06:20:29;;;;;;;2.70;2.50;;;;;;;34.37;31.98;98910.30;1723849;82;20985;-53
2021/07/29 06:22:55;;;;;;;2.72;2.52;;;;;;;34.34;32.01;98912.94;1749090;82;20993;-54
2021/07/29 06:25:22;;;;;;;2.70;2.58;;;;;;;34.32;32.07;98909.59;1750749;81;21003;-54
2021/07/29 06:27:49;;;;;;;3.12;2.90;;;;;;;34.31;32.08;98912.02;1750753;81;21042;-52
2021/07/29 06:30:16;;;;;;;2.95;2.75;;;;;;;34.29;32.14;98907.30;1750839;82;21078;-53
2021/07/29 06:32:43;;;;;;;2.92;2.72;;;;;;;34.26;32.19;98905.02;1725031;82;21029;-51
2021/07/29 06:35:10;;;;;;;2.90;2.70;;;;;;;34.23;32.25;98905.48;1725066;82;21010;-53
2021/07/29 06:37:38;;;;;;;2.75;2.55;;;;;;;34.20;32.32;98908.63;1725160;82;20987;-50
2021/07/29 06:40:07;;;;;;;3.00;2.65;;;;;;;34.18;32.38;98906.62;1750796;82;21089;-54
2021/07/29 06:42:33;;;;;;;2.83;2.62;;;;;;;34.15;32.44;98901.63;1750722;82;21097;-50
2021/07/29 06:45:00;;;;;;;2.37;2.27;;;;;;;34.12;32.48;98904.26;1750764;82;21683;-54
2021/07/29 06:47:27;;;;;;;3.05;2.75;;;;;;;34.11;32.53;98903.11;1725123;82;21514;-53
2021/07/29 06:49:54;;;;;;;2.95;2.65;;;;;;;34.10;32.58;98904.19;1725226;82;21046;-50
2021/07/29 06:52:21;;;;;;;3.05;2.85;;;;;;;34.09;32.60;98907.97;1725156;82;21596;-52
2021/07/29 06:54:48;;;;;;;2.77;2.58;;;;;;;34.09;32.63;98910.69;1725233;82;21006;-52
2021/07/29 06:57:14;;;;;;;3.17;2.60;;;;;;;34.08;32.65;98910.37;1725332;82;21054;-53
2021/07/29 06:59:40;;;;;;;2.52;2.42;;;;;;;34.08;32.67;98906.28;1750610;81;20998;-54
2021/07/29 07:02:07;;;;;;;2.50;2.40;;;;;;;34.05;32.71;98907.03;1750491;82;21034;-53
2021/07/29 07:04:33;;;;;;;2.40;2.30;;;;;;;34.05;32.74;98913.86;1677130;81;20991;-53
2021/07/29 07:07:00;;;;;;;3.02;2.87;;;;;;;34.05;32.78;98908.40;1750638;82;20990;-53
2021/07/29 07:09:31;;;;;;;2.70;2.52;;;;;;;34.04;32.79;98912.20;1715276;82;21672;-54
2021/07/29 07:11:57;;;;;;;2.90;2.70;;;;;;;34.04;32.80;98906.75;1749168;82;21156;-52
2021/07/29 07:14:24;;;;;;;2.87;2.67;;;;;;;34.03;32.81;98910.52;1750695;82;20974;-54
2021/07/29 07:16:51;;;;;;;2.92;2.60;;;;;;;34.04;32.84;98913.57;1725098;82;21022;-52
2021/07/29 07:19:17;;;;;;;2.47;2.37;;;;;;;34.04;32.85;98913.57;1725111;82;21077;-52
2021/07/29 07:21:44;;;;;;;3.22;3.02;;;;;;;34.03;32.87;98911.89;1721655;81;21030;-53
2021/07/29 07:24:10;;;;;;;2.70;2.50;;;;;;;34.04;32.86;98904.02;1696125;83;21520;-54
2021/07/29 07:26:37;;;;;;;2.40;2.30;;;;;;;34.04;32.90;98906.75;1695972;83;21042;-54
2021/07/29 07:29:05;;;;;;;2.42;2.33;;;;;;;34.04;32.91;98897.70;1720619;83;21072;-52
2021/07/29 07:31:33;;;;;;;2.35;2.22;;;;;;;34.03;32.93;98903.70;1696148;83;21002;-52
2021/07/29 07:34:00;;;;;;;2.75;2.55;;;;;;;34.02;32.96;98903.37;1720803;83;21125;-55
2021/07/29 07:36:27;;;;;;;2.85;2.65;;;;;;;34.01;32.99;98900.36;1696037;83;21100;-53
2021/07/29 07:38:54;;;;;;;2.60;2.50;;;;;;;34.01;33.02;98895.41;1720887;83;21528;-52
2021/07/29 07:41:21;;;;;;;2.42;2.22;;;;;;;33.99;33.05;98902.45;1720846;83;21413;-53
2021/07/29 07:43:49;;;;;;;2.77;2.30;;;;;;;33.98;33.07;98892.61;1720563;83;20994;-54
2021/07/29 07:46:16;;;;;;;2.62;2.45;;;;;;;33.97;33.10;98900.47;1696019;83;21038;-51
2021/07/29 07:48:42;;;;;;;2.80;2.60;;;;;;;33.98;33.12;98898.60;1720676;83;21056;-51
2021/07/29 07:51:09;;;;;;;3.08;2.87;;;;;;;33.96;33.17;98896.59;1720771;83;21022;-53
2021/07/29 07:53:35;;;;;;;2.55;2.45;;;;;;;33.95;33.19;98898.50;1720773;83;21065;-53
2021/07/29 07:56:04;;;;;;;2.90;2.70;;;;;;;33.94;33.20;98892.72;1720781;83;21497;-54
2021/07/29 07:58:34;;;;;;;2.80;2.60;;;;;;;33.93;33.23;98893.80;1720726;83;21126;-54
2021/07/29 08:01:04;;;;;;;2.37;2.27;;;;;;;33.94;33.23;98895.45;1695938;83;21069;-53
2021/07/29 08:03:31;;;;;;;2.65;2.45;;;;;;;33.93;33.25;98886.98;1695963;83;21559;-53
2021/07/29 08:06:03;;;;;;;3.60;2.52;;;;;;;33.94;33.26;98883.17;1742389;81;21923;-51
2021/07/29 08:08:29;;;;;;;2.67;2.50;;;;;;;33.93;33.29;98877.42;1750654;82;21076;-54
2021/07/29 08:10:56;;;;;;;3.00;2.80;;;;;;;33.94;33.30;98884.53;1718163;82;21532;-54
2021/07/29 08:13:22;;;;;;;2.50;2.40;;;;;;;33.95;33.31;98881.30;1750554;82;21520;-51
2021/07/29 08:15:49;;;;;;;2.72;2.52;;;;;;;33.95;33.32;98875.30;1750591;82;22233;-53
2021/07/29 08:18:17;;;;;;;2.92;2.55;;;;;;;33.95;33.32;98878.03;1750491;82;21070;-54
2021/07/29 08:20:45;;;;;;;4.00;2.90;;;;;;;33.97;33.35;98875.08;1747296;82;21023;-52
2021/07/29 08:23:12;;;;;;;2.75;2.47;;;;;;;33.97;33.31;98878.64;1743658;82;21215;-49
2021/07/29 08:25:38;;;;;;;2.72;2.52;;;;;;;33.98;33.31;98878.13;1742231;82;21040;-53
2021/07/29 08:28:05;;;;;;;2.72;2.52;;;;;;;34.00;33.32;98877.38;1742409;82;21012;-53
2021/07/29 08:30:32;;;;;;;2.65;2.45;;;;;;;34.01;33.31;98877.16;1747450;82;21067;-54
2021/07/29 08:33:08;;;;;;;2.55;2.35;;;;;;;34.03;33.28;98877.77;1724153;82;21043;-53
2021/07/29 08:35:37;;;;;;;2.85;2.65;;;;;;;34.04;33.28;98867.17;1748203;82;21802;-54
2021/07/29 08:38:04;;;;;;;2.40;2.20;;;;;;;34.06;33.25;98865.55;1747958;82;21019;-53
2021/07/29 08:40:33;;;;;;;2.50;2.30;;;;;;;34.08;33.25;98873.02;1747895;82;21523;-53
2021/07/29 08:43:02;;;;;;;2.55;2.37;;;;;;;34.09;33.24;98877.39;1747836;82;21047;-51
2021/07/29 08:45:29;;;;;;;2.60;2.17;;;;;;;34.10;33.24;98871.43;1700440;82;21054;-51
2021/07/29 08:47:55;;;;;;;2.42;2.30;;;;;;;34.12;33.24;98865.21;1724296;82;21566;-54
2021/07/29 08:50:23;;;;;;;2.62;2.42;;;;;;;34.12;33.24;98862.48;1748339;82;21056;-54
2021/07/29 08:52:50;;;;;;;2.65;2.45;;;;;;;34.14;33.23;98861.73;1724619;82;21067;-52
2021/07/29 08:55:17;;;;;;;2.70;2.60;;;;;;;34.14;33.23;98858.45;1724495;82;21082;-54
2021/07/29 08:57:44;;;;;;;2.60;2.40;;;;;;;34.15;33.23;98854.68;1748003;82;20992;-53
2021/07/29 09:00:13;;;;;;;2.50;2.40;;;;;;;34.17;33.21;98856.65;1747930;82;21206;-53
2021/07/29 09:02:40;;;;;;;2.80;2.47;;;;;;;34.18;33.20;98856.11;1724421;82;20976;-55
2021/07/29 09:05:18;;;;;;;2.60;2.40;;;;;;;34.19;33.19;98857.80;1727817;81;21033;-53
2021/07/29 09:08:01;;;;;;;2.58;2.42;;;;;;;34.20;33.20;98855.38;1725773;81;21045;-54
2021/07/29 09:10:27;;;;;;;2.50;2.30;;;;;;;34.20;33.20;98851.29;1755562;81;21551;-54
2021/07/29 09:13:18;;;;;;;2.62;2.42;;;;;;;34.21;33.19;98851.61;1756655;81;22104;-52
2021/07/29 09:15:47;;;;;;;2.65;2.45;;;;;;;34.22;33.21;98857.39;1733304;81;20978;-54
2021/07/29 09:18:17;;;;;;;2.40;2.20;;;;;;;34.21;33.20;98848.37;1732955;81;21041;-53
2021/07/29 09:20:44;;;;;;;2.70;2.27;;;;;;;34.21;33.21;98842.91;1733178;81;21046;-53
2021/07/29 09:23:21;;;;;;;2.60;2.47;;;;;;;34.22;33.22;98843.20;1750412;81;21020;-52
2021/07/29 09:26:00;;;;;;;2.40;2.30;;;;;;;34.22;33.24;98835.00;1748161;82;21158;-54
2021/07/29 09:28:37;;;;;;;2.80;2.52;;;;;;;34.23;33.24;98844.05;1724262;82;21023;-53
2021/07/29 09:31:22;;;;;;;2.87;2.42;;;;;;;34.24;33.24;98832.05;1748139;82;23024;-54
2021/07/29 09:34:01;;;;;;;3.27;2.40;;;;;;;34.25;33.24;98835.10;1748121;82;21083;-55
2021/07/29 09:36:33;;;;;;;2.67;2.47;;;;;;;34.26;33.25;98834.56;1748154;82;20997;-54
2021/07/29 09:39:21;;;;;;;2.25;2.15;;;;;;;34.27;33.26;98833.52;1748131;82;21225;-53
2021/07/29 09:41:51;;;;;;;2.58;2.37;;;;;;;34.26;33.27;98831.30;1748261;82;21047;-53
2021/07/29 09:44:44;;;;;;;2.33;2.22;;;;;;;34.26;33.29;98808.09;1748047;82;21095;-54
2021/07/29 09:47:11;;;;;;;2.45;2.27;;;;;;;34.25;33.30;98822.81;1748136;82;22177;-54
2021/07/29 09:49:38;;;;;;;2.67;2.47;;;;;;;34.24;33.33;98824.69;1731951;81;21022;-48
2021/07/29 09:52:06;;;;;;;2.50;2.30;;;;;;;34.25;33.33;98822.81;1726615;83;22159;-54
2021/07/29 09:54:35;;;;;;;2.55;2.35;;;;;;;34.24;33.34;98819.77;1726538;83;21012;-53
2021/07/29 09:57:01;;;;;;;2.10;2.00;;;;;;;34.25;33.37;98820.09;1726417;83;21476;-53
2021/07/29 09:59:27;;;;;;;2.17;2.02;;;;;;;34.25;33.38;98828.27;1726571;83;20989;-52
2021/07/29 10:01:54;;;;;;;2.98;2.47;;;;;;;34.25;33.39;98835.10;1727050;83;21329;-53
2021/07/29 10:04:28;;;;;;;2.58;2.37;;;;;;;34.24;33.41;98825.23;1726327;81;21079;-51
2021/07/29 10:06:54;;;;;;;2.52;2.37;;;;;;;34.24;33.43;98818.41;1702904;83;21117;-54
2021/07/29 10:09:22;;;;;;;2.62;2.42;;;;;;;34.24;33.48;98825.23;1726564;83;22127;-54
2021/07/29 10:11:52;;;;;;;2.47;2.27;;;;;;;34.24;33.48;98823.86;1726561;81;21152;-54
2021/07/29 10:14:51;;;;;;;2.27;2.08;;;;;;;34.24;33.50;98817.03;1726463;82;21044;-51
2021/07/29 10:17:36;;;;;;;2.83;2.65;;;;;;;34.24;33.51;98814.30;1727485;81;22023;-54
2021/07/29 10:20:20;;;;;;;2.50;2.30;;;;;;;34.23;33.55;98815.39;1719502;83;21045;-54
2021/07/29 10:22:48;;;;;;;2.20;2.10;;;;;;;34.21;33.58;98801.09;1743380;81;21045;-52
2021/07/29 10:25:14;;;;;;;2.70;2.50;;;;;;;34.22;33.58;98806.88;1756629;81;21021;-54
2021/07/29 10:28:23;;;;;;;3.65;2.52;;;;;;;34.21;33.62;98809.29;1733446;81;20995;-54
2021/07/29 10:30:57;;;;;;;2.47;2.27;;;;;;;34.21;33.63;98808.78;1752030;81;21141;-54
2021/07/29 10:33:24;;;;;;;;;;;;;;;34.21;33.68;98801.09;1760239;81;21029;-54
2021/07/29 10:35:52;;;;;;;2.90;2.17;;;;;;;34.20;33.67;98800.27;1756802;81;20433;-54
2021/07/29 10:38:46;;;;;;;2.77;2.47;;;;;;;34.20;33.72;98800.78;1733292;81;21022;-52
2021/07/29 10:41:30;;;;;;;2.30;2.20;;;;;;;34.19;33.73;98794.46;1756711;81;21156;-54
2021/07/29 10:43:57;;;;;;;2.33;2.12;;;;;;;34.19;33.75;98786.81;1756685;81;21695;-45
2021/07/29 10:47:02;;;;;;;2.70;2.50;;;;;;;34.20;33.76;98792.59;1756811;81;20987;-54
2021/07/29 10:49:54;;;;;;;2.47;2.27;;;;;;;34.20;33.78;98787.13;1756530;81;21492;-53
2021/07/29 10:52:21;;;;;;;2.40;2.30;;;;;;;34.19;33.81;98783.55;1733111;81;21776;-54
2021/07/29 10:54:47;;;;;;;2.62;2.42;;;;;;;34.19;33.82;98783.55;1756450;81;21947;-53
2021/07/29 10:57:14;;;;;;;2.60;2.40;;;;;;;34.20;33.84;98785.77;1756609;81;21979;-50
2021/07/29 10:59:41;;;;;;;2.40;2.20;;;;;;;34.20;33.85;98784.40;1756818;81;21558;-54
2021/07/29 11:02:20;;;;;;;2.45;2.30;;;;;;;34.20;33.85;98785.26;1732762;81;21022;-53
2021/07/29 11:04:55;;;;;;;2.22;2.08;;;;;;;34.21;33.86;98786.08;1724749;82;21578;-51
2021/07/29 11:07:22;;;;;;;2.60;2.40;;;;;;;34.21;33.86;98781.48;1718543;83;21017;-48
2021/07/29 11:09:50;;;;;;;2.37;2.10;;;;;;;34.21;33.87;98779.25;1695330;83;21159;-52
2021/07/29 11:12:17;;;;;;;2.40;2.20;;;;;;;34.21;33.89;98776.53;1722514;81;21569;-54
2021/07/29 11:14:43;;;;;;;2.60;2.40;;;;;;;34.21;33.90;98766.97;1703440;83;21045;-51
2021/07/29 11:17:10;;;;;;;2.27;2.17;;;;;;;34.21;33.90;98759.64;1703624;83;20973;-53
2021/07/29 11:19:48;;;;;;;2.50;2.35;;;;;;;34.22;33.90;98767.29;1726312;83;46502;-47
2021/07/29 11:22:16;;;;;;;2.60;2.40;;;;;;;34.23;33.90;98766.24;1726568;83;21176;-50
2021/07/29 11:24:42;;;;;;;2.52;2.42;;;;;;;34.22;33.92;98758.56;1703676;83;21043;-53
2021/07/29 11:27:17;;;;;;;3.80;2.50;;;;;;;34.23;33.91;98751.22;1726406;83;21094;-54
2021/07/29 11:29:56;;;;;;;2.27;2.15;;;;;;;34.23;33.94;98749.86;1725205;83;21082;-53
2021/07/29 11:32:22;;;;;;;2.17;2.02;;;;;;;34.23;33.92;98753.95;1695976;83;21007;-51
2021/07/29 11:34:56;;;;;;;3.52;2.65;;;;;;;34.23;33.91;98743.86;1720881;83;21354;-53
2021/07/29 11:37:45;;;;;;;2.42;2.22;;;;;;;34.24;33.94;98740.59;1720927;83;21023;-51
2021/07/29 11:40:22;;;;;;;3.20;2.72;;;;;;;34.24;33.95;98732.39;1720834;82;21110;-53
2021/07/29 11:42:51;;;;;;;2.50;2.30;;;;;;;34.24;33.96;98735.95;1720708;83;21003;-52